createdAt,value
2022-07-30T00:00:10.987Z,11.20
2022-07-30T00:01:11.033Z,8.50
2022-07-30T00:02:10.968Z,11.00
2022-07-30T00:03:10.926Z,9.90
2022-07-30T00:04:10.955Z,9.80
2022-07-30T00:05:10.914Z,8.60
2022-07-30T00:06:10.899Z,8.80
2022-07-30T00:07:10.923Z,10.40
2022-07-30T00:08:10.864Z,8.20
2022-07-30T00:09:10.883Z,9.90
2022-07-30T00:10:10.858Z,9.90
2022-07-30T00:11:10.822Z,9.40
2022-07-30T00:12:10.825Z,8.50
2022-07-30T00:13:10.817Z,9.70
2022-07-30T00:14:10.858Z,9.20
2022-07-30T00:15:10.805Z,8.90
2022-07-30T00:16:10.828Z,11.00
2022-07-30T00:17:10.843Z,10.20
2022-07-30T00:18:11.954Z,11.90
2022-07-30T00:19:10.761Z,11.00
2022-07-30T00:20:10.729Z,11.30
2022-07-30T00:21:11.163Z,10.70
2022-07-30T00:22:10.718Z,10.80
2022-07-30T00:23:10.693Z,11.90
2022-07-30T00:24:10.727Z,10.70
2022-07-30T00:25:10.678Z,12.30
2022-07-30T00:26:10.662Z,12.00
2022-07-30T00:27:10.711Z,10.70
2022-07-30T00:28:10.635Z,14.20
2022-07-30T00:29:10.651Z,14.70
2022-07-30T00:30:10.638Z,11.70
2022-07-30T00:31:10.698Z,13.40
2022-07-30T00:32:10.606Z,9.90
2022-07-30T00:33:10.600Z,13.30
2022-07-30T00:34:10.636Z,12.50
2022-07-30T00:35:10.579Z,11.20
2022-07-30T00:36:10.673Z,13.10
2022-07-30T00:37:10.561Z,14.20
2022-07-30T00:38:10.551Z,13.20
2022-07-30T00:39:10.551Z,13.40
2022-07-30T00:40:10.498Z,14.50
2022-07-30T00:41:10.488Z,12.70
2022-07-30T00:42:10.505Z,13.30
2022-07-30T00:43:10.469Z,12.10
2022-07-30T00:44:10.531Z,14.90
2022-07-30T00:45:10.533Z,11.70
2022-07-30T00:46:10.606Z,14.60
2022-07-30T00:47:10.440Z,11.30
2022-07-30T00:48:10.475Z,10.30
2022-07-30T00:49:10.468Z,14.10
2022-07-30T00:50:10.584Z,12.90
2022-07-30T00:51:10.391Z,12.00
2022-07-30T00:52:10.462Z,12.20
2022-07-30T00:53:10.376Z,13.40
2022-07-30T00:54:10.372Z,12.40
2022-07-30T00:55:10.335Z,11.70
2022-07-30T00:56:10.361Z,12.60
2022-07-30T00:57:10.315Z,14.40
2022-07-30T00:58:10.305Z,14.00
2022-07-30T00:59:10.310Z,13.00
2022-07-30T01:00:10.276Z,13.20
2022-07-30T01:01:10.363Z,12.30
2022-07-30T01:02:10.314Z,13.80
2022-07-30T01:03:10.295Z,11.70
2022-07-30T01:04:10.301Z,11.40
2022-07-30T01:05:10.248Z,10.90
2022-07-30T01:06:14.156Z,10.40
2022-07-30T01:07:10.241Z,11.80
2022-07-30T01:08:10.178Z,12.50
2022-07-30T01:09:10.183Z,12.80
2022-07-30T01:10:10.171Z,12.90
2022-07-30T01:11:10.152Z,14.60
2022-07-30T01:12:10.183Z,16.40
2022-07-30T01:13:10.213Z,12.60
2022-07-30T01:14:10.131Z,15.80
2022-07-30T01:15:10.155Z,12.90
2022-07-30T01:16:10.132Z,11.10
2022-07-30T01:17:10.127Z,12.20
2022-07-30T01:18:10.059Z,11.30
2022-07-30T01:19:10.061Z,13.80
2022-07-30T01:20:10.131Z,10.20
2022-07-30T01:21:10.057Z,13.60
2022-07-30T01:22:10.060Z,15.80
2022-07-30T01:23:10.027Z,11.80
2022-07-30T01:24:10.023Z,12.30
2022-07-30T01:25:09.987Z,12.10
2022-07-30T01:26:09.993Z,12.30
2022-07-30T01:27:09.981Z,12.10
2022-07-30T01:28:10.111Z,12.40
2022-07-30T01:29:09.970Z,12.70
2022-07-30T01:30:09.940Z,12.30
2022-07-30T01:31:09.961Z,14.40
2022-07-30T01:32:09.938Z,13.80
2022-07-30T01:33:09.905Z,12.00
2022-07-30T01:34:09.894Z,11.00
2022-07-30T01:35:09.940Z,11.80
2022-07-30T01:36:09.884Z,11.70
2022-07-30T01:37:09.881Z,11.90
2022-07-30T01:38:09.902Z,11.30
2022-07-30T01:39:09.827Z,12.20
2022-07-30T01:40:09.818Z,13.60
2022-07-30T01:41:09.847Z,11.20
2022-07-30T01:42:09.848Z,14.30
2022-07-30T01:43:09.821Z,13.60
2022-07-30T01:44:09.779Z,10.70
2022-07-30T01:45:09.807Z,11.50
2022-07-30T01:46:09.794Z,11.90
2022-07-30T01:47:09.762Z,12.00
2022-07-30T01:48:09.731Z,10.70
2022-07-30T01:49:09.756Z,10.60
2022-07-30T01:50:10.984Z,11.60
2022-07-30T01:51:10.480Z,12.80
2022-07-30T01:52:09.711Z,13.50
2022-07-30T01:53:09.751Z,12.70
2022-07-30T01:54:09.669Z,11.60
2022-07-30T01:55:11.639Z,11.40
2022-07-30T01:56:10.809Z,11.50
2022-07-30T01:57:09.656Z,13.60
2022-07-30T01:58:09.608Z,12.40
2022-07-30T01:59:09.611Z,13.30
2022-07-30T02:00:09.590Z,12.80
2022-07-30T02:01:09.692Z,12.60
2022-07-30T02:02:09.569Z,13.70
2022-07-30T02:03:09.653Z,13.30
2022-07-30T02:04:09.551Z,14.30
2022-07-30T02:05:09.550Z,15.40
2022-07-30T02:06:09.534Z,14.20
2022-07-30T02:07:09.638Z,15.00
2022-07-30T02:08:09.531Z,14.90
2022-07-30T02:09:11.164Z,15.80
2022-07-30T02:10:09.468Z,16.40
2022-07-30T02:11:09.464Z,15.10
2022-07-30T02:12:09.453Z,14.60
2022-07-30T02:13:09.501Z,16.40
2022-07-30T02:14:09.434Z,13.80
2022-07-30T02:15:09.410Z,15.00
2022-07-30T02:16:09.479Z,16.20
2022-07-30T02:17:18.816Z,14.80
2022-07-30T02:18:09.427Z,16.00
2022-07-30T02:19:09.368Z,16.30
2022-07-30T02:20:09.994Z,14.90
2022-07-30T02:21:11.556Z,17.70
2022-07-30T02:22:09.345Z,16.60
2022-07-30T02:23:09.342Z,17.00
2022-07-30T02:24:09.310Z,16.80
2022-07-30T02:25:09.329Z,15.70
2022-07-30T02:26:09.379Z,16.00
2022-07-30T02:27:09.305Z,17.10
2022-07-30T02:28:09.323Z,17.00
2022-07-30T02:29:11.357Z,15.80
2022-07-30T02:30:09.254Z,15.80
2022-07-30T02:31:17.303Z,15.70
2022-07-30T02:32:09.231Z,17.70
2022-07-30T02:33:09.277Z,16.20
2022-07-30T02:34:09.212Z,16.50
2022-07-30T02:35:09.190Z,17.00
2022-07-30T02:36:11.351Z,17.10
2022-07-30T02:37:09.195Z,16.80
2022-07-30T02:38:09.175Z,17.70
2022-07-30T02:39:09.150Z,18.40
2022-07-30T02:40:09.156Z,18.50
2022-07-30T02:41:09.119Z,18.20
2022-07-30T02:42:09.114Z,20.90
2022-07-30T02:43:09.135Z,18.70
2022-07-30T02:44:09.078Z,20.40
2022-07-30T02:45:09.097Z,20.70
2022-07-30T02:46:09.087Z,19.70
2022-07-30T02:47:09.161Z,19.80
2022-07-30T02:48:09.073Z,18.80
2022-07-30T02:49:09.077Z,19.00
2022-07-30T02:50:09.022Z,19.20
2022-07-30T02:51:09.044Z,19.50
2022-07-30T02:52:09.009Z,20.70
2022-07-30T02:53:09.005Z,19.20
2022-07-30T02:54:08.993Z,20.10
2022-07-30T02:55:09.081Z,21.70
2022-07-30T02:56:08.960Z,20.70
2022-07-30T02:57:08.982Z,19.00
2022-07-30T02:58:08.933Z,22.40
2022-07-30T02:59:08.960Z,18.40
2022-07-30T03:00:08.920Z,17.60
2022-07-30T03:01:09.001Z,17.60
2022-07-30T03:02:08.932Z,17.20
2022-07-30T03:03:08.884Z,17.10
2022-07-30T03:04:08.919Z,16.20
2022-07-30T03:05:08.880Z,16.80
2022-07-30T03:06:08.845Z,20.60
2022-07-30T03:07:09.320Z,19.60
2022-07-30T03:08:08.824Z,16.60
2022-07-30T03:09:08.852Z,17.00
2022-07-30T03:10:08.825Z,17.90
2022-07-30T03:11:08.801Z,17.00
2022-07-30T03:12:08.847Z,18.20
2022-07-30T03:13:08.779Z,19.30
2022-07-30T03:14:08.819Z,18.90
2022-07-30T03:15:08.734Z,18.30
2022-07-30T03:16:08.785Z,18.10
2022-07-30T03:17:08.719Z,18.30
2022-07-30T03:18:08.732Z,18.50
2022-07-30T03:19:08.755Z,17.60
2022-07-30T03:20:08.683Z,19.00
2022-07-30T03:21:08.674Z,17.40
2022-07-30T03:22:08.696Z,17.90
2022-07-30T03:23:08.657Z,19.50
2022-07-30T03:24:08.664Z,20.50
2022-07-30T03:25:08.633Z,20.70
2022-07-30T03:26:08.669Z,19.90
2022-07-30T03:27:08.609Z,23.90
2022-07-30T03:28:08.593Z,21.00
2022-07-30T03:29:08.651Z,20.00
2022-07-30T03:30:08.570Z,21.30
2022-07-30T03:31:08.627Z,21.40
2022-07-30T03:32:08.549Z,22.80
2022-07-30T03:33:08.562Z,21.20
2022-07-30T03:34:08.550Z,20.10
2022-07-30T03:35:08.690Z,20.50
2022-07-30T03:36:08.507Z,21.00
2022-07-30T03:37:08.551Z,19.60
2022-07-30T03:38:08.486Z,20.30
2022-07-30T03:39:08.501Z,23.30
2022-07-30T03:40:08.470Z,20.50
2022-07-30T03:41:08.445Z,19.80
2022-07-30T03:42:08.443Z,19.50
2022-07-30T03:43:18.323Z,20.00
2022-07-30T03:44:08.447Z,17.70
2022-07-30T03:45:08.405Z,18.00
2022-07-30T03:46:08.423Z,18.10
2022-07-30T03:47:08.413Z,18.30
2022-07-30T03:48:08.369Z,16.60
2022-07-30T03:49:08.425Z,17.40
2022-07-30T03:50:08.410Z,18.80
2022-07-30T03:51:08.354Z,18.90
2022-07-30T03:52:08.390Z,17.10
2022-07-30T03:53:08.353Z,19.20
2022-07-30T03:54:11.684Z,17.50
2022-07-30T03:55:08.320Z,18.70
2022-07-30T03:56:08.288Z,17.40
2022-07-30T03:57:08.372Z,20.40
2022-07-30T03:58:08.267Z,19.70
2022-07-30T03:59:08.645Z,17.40
2022-07-30T04:00:08.254Z,19.00
2022-07-30T04:01:08.281Z,18.90
2022-07-30T04:02:08.276Z,17.90
2022-07-30T04:03:08.214Z,18.40
2022-07-30T04:04:08.303Z,18.80
2022-07-30T04:05:08.231Z,18.70
2022-07-30T04:06:08.195Z,18.60
2022-07-30T04:07:08.172Z,19.50
2022-07-30T04:08:08.142Z,18.10
2022-07-30T04:09:08.141Z,19.80
2022-07-30T04:10:08.191Z,17.70
2022-07-30T04:11:08.111Z,21.70
2022-07-30T04:12:08.097Z,18.10
2022-07-30T04:13:09.729Z,19.20
2022-07-30T04:14:08.098Z,18.20
2022-07-30T04:16:05.996Z,19.70
2022-07-30T04:16:46.506Z,17.90
2022-07-30T04:17:08.115Z,18.80
2022-07-30T04:18:08.061Z,20.70
2022-07-30T04:19:08.046Z,21.40
2022-07-30T04:20:08.000Z,20.20
2022-07-30T04:21:08.056Z,19.30
2022-07-30T04:22:08.002Z,20.50
2022-07-30T04:23:08.005Z,21.40
2022-07-30T04:24:08.046Z,22.20
2022-07-30T04:25:07.965Z,21.80
2022-07-30T04:26:07.975Z,22.20
2022-07-30T04:27:07.947Z,20.50
2022-07-30T04:28:07.921Z,21.90
2022-07-30T04:29:07.973Z,25.60
2022-07-30T04:30:07.920Z,23.30
2022-07-30T04:31:07.939Z,21.60
2022-07-30T04:32:07.909Z,23.50
2022-07-30T04:33:07.868Z,20.70
2022-07-30T04:34:07.879Z,22.50
2022-07-30T04:35:07.852Z,20.90
2022-07-30T04:36:07.866Z,19.40
2022-07-30T04:37:07.841Z,20.50
2022-07-30T04:38:07.861Z,22.00
2022-07-30T04:39:07.812Z,21.60
2022-07-30T04:40:07.791Z,22.90
2022-07-30T04:41:07.807Z,20.90
2022-07-30T04:42:07.779Z,20.90
2022-07-30T04:43:07.805Z,20.70
2022-07-30T04:44:07.752Z,22.30
2022-07-30T04:45:07.749Z,20.90
2022-07-30T04:46:07.827Z,20.50
2022-07-30T04:47:07.733Z,20.10
2022-07-30T04:48:07.709Z,23.70
2022-07-30T04:49:07.923Z,19.70
2022-07-30T04:50:07.697Z,23.30
2022-07-30T04:51:07.695Z,21.80
2022-07-30T04:52:07.659Z,21.60
2022-07-30T04:53:07.671Z,22.70
2022-07-30T04:54:07.684Z,22.50
2022-07-30T04:55:07.639Z,19.70
2022-07-30T04:56:07.623Z,19.90
2022-07-30T04:57:07.964Z,22.50
2022-07-30T04:58:07.621Z,21.60
2022-07-30T04:59:07.594Z,21.80
2022-07-30T05:00:07.818Z,19.00
2022-07-30T05:01:07.558Z,22.50
2022-07-30T05:02:07.688Z,22.10
2022-07-30T05:03:07.580Z,21.30
2022-07-30T05:04:07.527Z,20.90
2022-07-30T05:05:07.612Z,21.80
2022-07-30T05:06:07.550Z,22.30
2022-07-30T05:07:07.502Z,21.40
2022-07-30T05:08:07.491Z,18.90
2022-07-30T05:09:07.483Z,19.10
2022-07-30T05:10:07.578Z,21.80
2022-07-30T05:11:07.470Z,21.60
2022-07-30T05:12:07.449Z,21.30
2022-07-30T05:13:08.047Z,21.40
2022-07-30T05:14:07.411Z,20.80
2022-07-30T05:15:07.408Z,22.00
2022-07-30T05:16:07.437Z,20.60
2022-07-30T05:17:07.418Z,20.60
2022-07-30T05:18:07.395Z,23.00
2022-07-30T05:19:07.359Z,21.70
2022-07-30T05:20:07.394Z,22.90
2022-07-30T05:21:07.334Z,21.90
2022-07-30T05:22:07.347Z,19.50
2022-07-30T05:23:07.345Z,22.00
2022-07-30T05:24:07.302Z,21.60
2022-07-30T05:25:15.838Z,21.30
2022-07-30T05:26:07.280Z,23.20
2022-07-30T05:27:07.273Z,20.00
2022-07-30T05:28:07.281Z,23.70
2022-07-30T05:29:08.240Z,21.10
2022-07-30T05:30:08.078Z,20.40
2022-07-30T05:31:08.177Z,19.30
2022-07-30T05:32:07.392Z,20.80
2022-07-30T05:33:10.309Z,19.90
2022-07-30T05:34:07.206Z,22.40
2022-07-30T05:35:07.195Z,21.00
2022-07-30T05:36:07.161Z,23.70
2022-07-30T05:37:07.157Z,21.20
2022-07-30T05:38:07.146Z,22.00
2022-07-30T05:39:07.268Z,19.90
2022-07-30T05:40:07.164Z,21.10
2022-07-30T05:41:30.757Z,21.80
2022-07-30T05:42:07.085Z,21.70
2022-07-30T05:43:07.073Z,22.70
2022-07-30T05:44:07.065Z,26.10
2022-07-30T05:45:07.109Z,22.60
2022-07-30T05:46:07.157Z,22.00
2022-07-30T05:47:07.028Z,20.90
2022-07-30T05:48:07.020Z,22.10
2022-07-30T05:49:07.072Z,21.20
2022-07-30T05:50:07.083Z,19.60
2022-07-30T05:51:07.203Z,20.30
2022-07-30T05:52:06.989Z,21.90
2022-07-30T05:53:06.968Z,20.30
2022-07-30T05:54:06.944Z,21.40
2022-07-30T05:55:06.945Z,21.90
2022-07-30T05:56:06.999Z,20.20
2022-07-30T05:57:06.909Z,21.00
2022-07-30T05:58:06.897Z,22.80
2022-07-30T05:59:07.008Z,20.10
2022-07-30T06:00:06.880Z,20.80
2022-07-30T06:01:06.901Z,24.50
2022-07-30T06:02:06.969Z,21.00
2022-07-30T06:03:06.876Z,21.80
2022-07-30T06:04:06.877Z,21.80
2022-07-30T06:05:06.846Z,22.80
2022-07-30T06:06:06.836Z,20.30
2022-07-30T06:07:06.866Z,21.30
2022-07-30T06:08:06.850Z,22.40
2022-07-30T06:09:06.843Z,20.70
2022-07-30T06:10:06.784Z,20.50
2022-07-30T06:11:06.745Z,21.70
2022-07-30T06:12:06.816Z,23.20
2022-07-30T06:13:06.771Z,21.60
2022-07-30T06:14:06.722Z,20.00
2022-07-30T06:15:06.734Z,20.50
2022-07-30T06:16:06.793Z,21.40
2022-07-30T06:17:06.697Z,21.70
2022-07-30T06:18:06.831Z,19.70
2022-07-30T06:19:07.038Z,20.40
2022-07-30T06:20:06.736Z,23.90
2022-07-30T06:21:06.740Z,21.10
2022-07-30T06:22:07.291Z,22.20
2022-07-30T06:23:06.668Z,20.70
2022-07-30T06:24:06.609Z,20.80
2022-07-30T06:25:06.604Z,20.50
2022-07-30T06:26:06.657Z,22.70
2022-07-30T06:27:06.613Z,21.10
2022-07-30T06:28:27.376Z,20.50
2022-07-30T06:29:06.648Z,21.00
2022-07-30T06:30:06.563Z,20.80
2022-07-30T06:31:06.647Z,21.10
2022-07-30T06:32:06.546Z,21.70
2022-07-30T06:33:06.529Z,22.50
2022-07-30T06:34:06.497Z,20.50
2022-07-30T06:35:06.519Z,21.40
2022-07-30T06:36:06.481Z,24.50
2022-07-30T06:37:06.467Z,21.60
2022-07-30T06:38:07.729Z,21.40
2022-07-30T06:39:06.434Z,21.50
2022-07-30T06:40:06.501Z,21.30
2022-07-30T06:41:06.453Z,20.80
2022-07-30T06:42:06.441Z,21.20
2022-07-30T06:43:06.397Z,21.10
2022-07-30T06:44:06.389Z,21.60
2022-07-30T06:45:06.444Z,20.70
2022-07-30T06:46:06.444Z,21.10
2022-07-30T06:47:08.220Z,20.70
2022-07-30T06:48:06.424Z,22.40
2022-07-30T06:49:06.388Z,23.30
2022-07-30T06:50:06.323Z,19.70
2022-07-30T06:51:06.486Z,22.70
2022-07-30T06:52:06.294Z,21.00
2022-07-30T06:53:06.292Z,20.80
2022-07-30T06:54:06.274Z,20.60
2022-07-30T06:55:06.258Z,20.50
2022-07-30T06:56:06.249Z,20.80
2022-07-30T06:57:06.429Z,19.80
2022-07-30T06:58:06.266Z,20.20
2022-07-30T06:59:06.416Z,20.60
2022-07-30T07:00:06.214Z,19.70
2022-07-30T07:01:11.191Z,19.30
2022-07-30T07:02:06.198Z,19.10
2022-07-30T07:03:11.275Z,21.00
2022-07-30T07:04:06.224Z,19.70
2022-07-30T07:05:06.208Z,20.10
2022-07-30T07:06:06.140Z,22.10
2022-07-30T07:07:12.582Z,20.00
2022-07-30T07:08:06.170Z,20.30
2022-07-30T07:09:06.120Z,21.10
2022-07-30T07:10:06.102Z,18.50
2022-07-30T07:11:06.119Z,19.80
2022-07-30T07:12:06.061Z,18.70
2022-07-30T07:13:06.062Z,18.70
2022-07-30T07:14:06.062Z,18.70
2022-07-30T07:15:06.051Z,20.40
2022-07-30T07:16:06.013Z,20.60
2022-07-30T07:17:06.448Z,19.10
2022-07-30T07:18:06.012Z,20.70
2022-07-30T07:19:06.037Z,17.80
2022-07-30T07:20:06.087Z,18.40
2022-07-30T07:21:05.961Z,19.50
2022-07-30T07:22:05.951Z,18.30
2022-07-30T07:23:09.420Z,18.50
2022-07-30T07:24:05.998Z,17.30
2022-07-30T07:25:05.924Z,19.30
2022-07-30T07:26:05.996Z,18.10
2022-07-30T07:27:05.908Z,17.80
2022-07-30T07:28:11.104Z,17.70
2022-07-30T07:29:05.910Z,17.30
2022-07-30T07:30:06.386Z,18.80
2022-07-30T07:31:05.892Z,18.10
2022-07-30T07:32:08.086Z,20.00
2022-07-30T07:33:05.850Z,18.40
2022-07-30T07:34:05.824Z,19.50
2022-07-30T07:35:05.868Z,18.70
2022-07-30T07:36:05.855Z,18.90
2022-07-30T07:37:05.813Z,18.20
2022-07-30T07:38:05.790Z,18.40
2022-07-30T07:39:05.832Z,19.70
2022-07-30T07:40:05.757Z,19.30
2022-07-30T07:41:05.765Z,17.50
2022-07-30T07:42:05.770Z,17.80
2022-07-30T07:43:05.726Z,18.50
2022-07-30T07:44:05.736Z,18.70
2022-07-30T07:45:05.689Z,17.50
2022-07-30T07:46:05.794Z,19.30
2022-07-30T07:47:05.674Z,18.70
2022-07-30T07:48:05.698Z,18.80
2022-07-30T07:49:05.740Z,18.30
2022-07-30T07:50:05.869Z,18.60
2022-07-30T07:51:09.587Z,17.60
2022-07-30T07:52:05.692Z,18.50
2022-07-30T07:53:05.601Z,17.40
2022-07-30T07:54:21.036Z,19.60
2022-07-30T07:55:05.598Z,19.30
2022-07-30T07:56:05.580Z,19.10
2022-07-30T07:57:05.957Z,18.50
2022-07-30T07:58:05.558Z,18.50
2022-07-30T07:59:05.568Z,21.40
2022-07-30T08:00:05.526Z,18.80
2022-07-30T08:01:05.579Z,20.00
2022-07-30T08:02:05.572Z,19.20
2022-07-30T08:03:05.550Z,21.00
2022-07-30T08:04:10.474Z,19.00
2022-07-30T08:05:05.465Z,20.00
2022-07-30T08:06:06.646Z,19.40
2022-07-30T08:07:05.613Z,19.40
2022-07-30T08:08:05.483Z,19.10
2022-07-30T08:09:05.481Z,18.70
2022-07-30T08:10:05.439Z,18.40
2022-07-30T08:11:05.396Z,17.10
2022-07-30T08:12:05.397Z,18.70
2022-07-30T08:13:05.384Z,18.40
2022-07-30T08:14:05.396Z,17.70
2022-07-30T08:15:05.412Z,17.20
2022-07-30T08:16:05.369Z,16.70
2022-07-30T08:17:05.814Z,17.10
2022-07-30T08:18:05.334Z,16.00
2022-07-30T08:19:05.313Z,16.60
2022-07-30T08:20:05.306Z,14.80
2022-07-30T08:21:05.297Z,16.60
2022-07-30T08:22:05.314Z,18.20
2022-07-30T08:23:05.279Z,16.30
2022-07-30T08:24:05.243Z,17.20
2022-07-30T08:25:05.320Z,16.20
2022-07-30T08:26:05.252Z,15.20
2022-07-30T08:27:05.536Z,15.40
2022-07-30T08:28:05.210Z,14.90
2022-07-30T08:29:05.232Z,15.50
2022-07-30T08:30:05.205Z,15.00
2022-07-30T08:31:05.187Z,14.80
2022-07-30T08:32:05.487Z,15.50
2022-07-30T08:33:05.178Z,14.30
2022-07-30T08:34:05.181Z,14.80
2022-07-30T08:35:05.173Z,15.50
2022-07-30T08:36:09.546Z,14.00
2022-07-30T08:37:05.128Z,13.10
2022-07-30T08:38:05.096Z,13.50
2022-07-30T08:39:05.138Z,12.60
2022-07-30T08:40:05.137Z,13.10
2022-07-30T08:41:05.055Z,12.70
2022-07-30T08:42:05.361Z,13.40
2022-07-30T08:43:05.117Z,13.40
2022-07-30T08:44:07.878Z,13.60
2022-07-30T08:45:05.154Z,13.40
2022-07-30T08:46:05.006Z,12.20
2022-07-30T08:47:05.389Z,12.20
2022-07-30T08:48:04.979Z,12.60
2022-07-30T08:49:07.762Z,12.80
2022-07-30T08:50:04.985Z,12.70
2022-07-30T08:51:05.015Z,13.50
2022-07-30T08:52:05.296Z,13.50
2022-07-30T08:53:05.177Z,13.10
2022-07-30T08:54:04.999Z,12.10
2022-07-30T08:55:04.925Z,12.70
2022-07-30T08:56:04.905Z,12.80
2022-07-30T08:57:04.906Z,12.30
2022-07-30T08:58:04.906Z,13.10
2022-07-30T08:59:04.868Z,12.20
2022-07-30T09:00:04.894Z,13.50
2022-07-30T09:01:04.845Z,12.30
2022-07-30T09:02:08.929Z,12.20
2022-07-30T09:03:04.844Z,13.40
2022-07-30T09:05:04.815Z,13.10
2022-07-30T09:06:04.785Z,11.70
2022-07-30T09:07:04.986Z,12.30
2022-07-30T09:08:08.550Z,11.80
2022-07-30T09:09:04.763Z,11.50
2022-07-30T09:10:04.748Z,12.90
2022-07-30T09:11:04.952Z,14.20
2022-07-30T09:12:04.717Z,12.50
2022-07-30T09:13:04.760Z,13.70
2022-07-30T09:14:08.375Z,15.60
2022-07-30T09:15:04.671Z,13.20
2022-07-30T09:16:04.743Z,13.90
2022-07-30T09:17:05.300Z,15.10
2022-07-30T09:18:04.698Z,11.90
2022-07-30T09:19:04.666Z,12.20
2022-07-30T09:20:04.652Z,12.20
2022-07-30T09:21:04.639Z,11.80
2022-07-30T09:22:04.623Z,13.00
2022-07-30T09:23:04.611Z,13.10
2022-07-30T09:24:04.759Z,14.80
2022-07-30T09:25:04.580Z,12.20
2022-07-30T09:26:04.549Z,13.10
2022-07-30T09:27:04.974Z,13.00
2022-07-30T09:28:15.818Z,14.40
2022-07-30T09:29:04.589Z,13.60
2022-07-30T09:30:04.820Z,12.60
2022-07-30T09:31:04.522Z,11.60
2022-07-30T09:32:04.994Z,13.90
2022-07-30T09:33:04.517Z,15.00
2022-07-30T09:34:04.522Z,11.80
2022-07-30T09:35:06.278Z,11.90
2022-07-30T09:36:04.961Z,11.30
2022-07-30T09:37:04.442Z,13.20
2022-07-30T09:38:06.681Z,10.80
2022-07-30T09:39:04.439Z,14.40
2022-07-30T09:40:04.415Z,11.40
2022-07-30T09:41:12.222Z,11.70
2022-07-30T09:42:04.878Z,12.60
2022-07-30T09:43:05.242Z,12.40
2022-07-30T09:44:04.489Z,12.60
2022-07-30T09:45:04.728Z,11.30
2022-07-30T09:46:04.388Z,14.40
2022-07-30T09:47:04.362Z,11.30
2022-07-30T09:48:04.325Z,12.30
2022-07-30T09:49:04.346Z,14.20
2022-07-30T09:50:06.933Z,13.40
2022-07-30T09:51:04.306Z,10.10
2022-07-30T09:52:04.302Z,10.40
2022-07-30T09:53:04.284Z,12.20
2022-07-30T09:54:04.270Z,11.80
2022-07-30T09:55:04.260Z,9.80
2022-07-30T09:56:04.284Z,11.20
2022-07-30T09:57:04.229Z,13.20
2022-07-30T09:58:04.206Z,9.50
2022-07-30T09:59:05.129Z,10.00
2022-07-30T10:00:04.202Z,11.90
2022-07-30T10:01:04.201Z,12.90
2022-07-30T10:02:05.166Z,11.20
2022-07-30T10:03:12.605Z,11.30
2022-07-30T10:04:04.196Z,13.00
2022-07-30T10:05:04.143Z,11.90
2022-07-30T10:06:04.135Z,14.00
2022-07-30T10:07:04.446Z,15.50
2022-07-30T10:08:09.290Z,12.80
2022-07-30T10:09:13.888Z,11.50
2022-07-30T10:10:06.320Z,14.30
2022-07-30T10:11:08.478Z,13.00
2022-07-30T10:12:04.450Z,12.90
2022-07-30T10:13:05.509Z,11.50
2022-07-30T10:14:04.672Z,12.80
2022-07-30T10:15:06.173Z,13.40
2022-07-30T10:16:04.505Z,10.50
2022-07-30T10:17:04.010Z,8.60
2022-07-30T10:18:06.021Z,11.30
2022-07-30T10:19:04.278Z,12.00
2022-07-30T10:20:08.188Z,8.70
2022-07-30T10:21:05.397Z,9.30
2022-07-30T10:22:04.487Z,12.10
2022-07-30T10:23:08.316Z,11.60
2022-07-30T10:24:04.202Z,9.10
2022-07-30T10:25:05.283Z,11.00
2022-07-30T10:26:03.990Z,12.40
2022-07-30T10:27:06.311Z,13.10
2022-07-30T10:28:03.880Z,13.50
2022-07-30T10:29:03.901Z,9.30
2022-07-30T10:30:04.253Z,11.10
2022-07-30T10:31:47.163Z,8.50
2022-07-30T10:32:03.871Z,10.70
2022-07-30T10:33:03.817Z,8.10
2022-07-30T10:34:03.849Z,11.30
2022-07-30T10:35:05.886Z,10.50
2022-07-30T10:36:03.841Z,8.00
2022-07-30T10:37:04.683Z,9.80
2022-07-30T10:38:03.808Z,12.40
2022-07-30T10:39:03.839Z,12.00
2022-07-30T10:40:03.759Z,8.10
2022-07-30T10:41:03.792Z,11.50
2022-07-30T10:42:03.730Z,11.10
2022-07-30T10:43:03.757Z,13.30
2022-07-30T10:44:03.704Z,12.60
2022-07-30T10:45:04.235Z,9.40
2022-07-30T10:46:05.033Z,9.80
2022-07-30T10:47:07.156Z,9.20
2022-07-30T10:48:03.663Z,10.70
2022-07-30T10:49:03.740Z,10.10
2022-07-30T10:50:03.682Z,10.50
2022-07-30T10:51:04.188Z,10.00
2022-07-30T10:52:03.624Z,8.40
2022-07-30T10:53:03.662Z,7.60
2022-07-30T10:54:03.641Z,8.20
2022-07-30T10:55:03.619Z,7.50
2022-07-30T10:56:03.584Z,8.80
2022-07-30T10:57:04.051Z,9.80
2022-07-30T10:58:03.545Z,8.50
2022-07-30T10:59:03.609Z,9.20
2022-07-30T11:00:03.909Z,9.80
2022-07-30T11:01:03.541Z,9.90
2022-07-30T11:02:03.907Z,9.40
2022-07-30T11:03:14.123Z,10.80
2022-07-30T11:04:03.502Z,12.10
2022-07-30T11:05:03.502Z,10.80
2022-07-30T11:06:03.454Z,9.70
2022-07-30T11:07:03.758Z,10.40
2022-07-30T11:08:03.439Z,9.90
2022-07-30T11:09:03.448Z,9.00
2022-07-30T11:10:09.043Z,8.80
2022-07-30T11:11:19.442Z,10.00
2022-07-30T11:12:06.533Z,8.80
2022-07-30T11:13:03.451Z,8.10
2022-07-30T11:14:03.423Z,8.60
2022-07-30T11:15:07.495Z,9.60
2022-07-30T11:16:03.353Z,9.00
2022-07-30T11:17:03.339Z,7.80
2022-07-30T11:18:03.490Z,9.50
2022-07-30T11:19:19.562Z,9.10
2022-07-30T11:20:03.342Z,10.50
2022-07-30T11:21:03.332Z,9.10
2022-07-30T11:22:03.706Z,10.00
2022-07-30T11:23:03.304Z,7.70
2022-07-30T11:24:03.297Z,10.20
2022-07-30T11:25:12.749Z,7.40
2022-07-30T11:26:03.244Z,9.60
2022-07-30T11:27:03.250Z,9.80
2022-07-30T11:28:03.247Z,11.00
2022-07-30T11:29:03.214Z,8.70
2022-07-30T11:30:03.224Z,9.60
2022-07-30T11:31:10.074Z,8.80
2022-07-30T11:32:06.784Z,12.30
2022-07-30T11:33:04.498Z,9.70
2022-07-30T11:34:03.209Z,10.90
2022-07-30T11:35:03.165Z,10.40
2022-07-30T11:36:03.135Z,8.20
2022-07-30T11:37:03.113Z,9.70
2022-07-30T11:38:03.112Z,8.10
2022-07-30T11:39:03.718Z,8.80
2022-07-30T11:40:03.077Z,9.10
2022-07-30T11:41:03.075Z,8.00
2022-07-30T11:42:03.471Z,7.60
2022-07-30T11:43:03.047Z,9.50
2022-07-30T11:44:03.067Z,7.00
2022-07-30T11:45:04.183Z,8.70
2022-07-30T11:46:03.015Z,9.90
2022-07-30T11:47:03.011Z,7.40
2022-07-30T11:48:03.086Z,8.10
2022-07-30T11:49:03.091Z,8.60
2022-07-30T11:50:02.960Z,8.40
2022-07-30T11:51:04.042Z,7.70
2022-07-30T11:52:03.363Z,10.80
2022-07-30T11:53:02.926Z,6.30
2022-07-30T11:54:03.005Z,8.80
2022-07-30T11:55:02.917Z,7.20
2022-07-30T11:56:02.907Z,7.40
2022-07-30T11:57:04.800Z,9.20
2022-07-30T11:58:02.884Z,7.50
2022-07-30T11:59:02.899Z,6.90
2022-07-30T12:00:02.914Z,9.20
2022-07-30T12:01:02.842Z,6.60
2022-07-30T12:02:03.058Z,10.40
2022-07-30T12:03:04.274Z,9.80
2022-07-30T12:04:02.847Z,6.10
2022-07-30T12:05:02.837Z,7.10
2022-07-30T12:06:02.798Z,9.30
2022-07-30T12:07:03.006Z,8.70
2022-07-30T12:08:02.773Z,8.90
2022-07-30T12:09:02.833Z,8.80
2022-07-30T12:10:02.777Z,7.10
2022-07-30T12:11:02.782Z,8.70
2022-07-30T12:12:02.738Z,7.10
2022-07-30T12:13:02.850Z,8.70
2022-07-30T12:14:02.709Z,5.80
2022-07-30T12:15:02.732Z,7.40
2022-07-30T12:16:02.729Z,8.00
2022-07-30T12:17:03.011Z,8.20
2022-07-30T12:18:25.359Z,8.20
2022-07-30T12:19:02.670Z,9.90
2022-07-30T12:20:02.637Z,6.90
2022-07-30T12:21:02.684Z,6.80
2022-07-30T12:22:02.631Z,7.20
2022-07-30T12:23:02.610Z,8.20
2022-07-30T12:24:02.990Z,6.30
2022-07-30T12:25:02.596Z,6.80
2022-07-30T12:26:02.640Z,6.90
2022-07-30T12:27:02.811Z,7.10
2022-07-30T12:28:02.569Z,10.20
2022-07-30T12:29:02.519Z,7.30
2022-07-30T12:30:02.650Z,7.00
2022-07-30T12:31:02.921Z,8.20
2022-07-30T12:32:02.507Z,9.30
2022-07-30T12:33:02.527Z,9.70
2022-07-30T12:34:02.540Z,7.50
2022-07-30T12:35:02.501Z,5.60
2022-07-30T12:36:02.447Z,7.90
2022-07-30T12:37:02.813Z,6.10
2022-07-30T12:38:02.468Z,6.80
2022-07-30T12:39:02.409Z,5.90
2022-07-30T12:40:02.451Z,7.50
2022-07-30T12:41:02.389Z,7.50
2022-07-30T12:42:02.426Z,5.50
2022-07-30T12:43:02.367Z,8.00
2022-07-30T12:44:02.354Z,7.50
2022-07-30T12:45:02.347Z,4.80
2022-07-30T12:46:02.377Z,9.90
2022-07-30T12:47:02.670Z,7.40
2022-07-30T12:48:02.334Z,5.90
2022-07-30T12:49:19.152Z,6.50
2022-07-30T12:50:02.459Z,5.50
2022-07-30T12:51:02.305Z,5.70
2022-07-30T12:52:02.286Z,6.20
2022-07-30T12:53:02.293Z,8.30
2022-07-30T12:54:02.267Z,7.00
2022-07-30T12:55:02.244Z,6.30
2022-07-30T12:56:02.214Z,6.70
2022-07-30T12:57:02.507Z,5.80
2022-07-30T12:58:07.690Z,5.90